Strona główna
METAR-TAF:

METAR-TAF

Lotnisko :

Port lotniczy Pakxe

Pakxe, Laos

Szerokość geograficzna: 15-08-02N, Długość geograficzna: 105-46-55E, wysokość: 107 m

Aktualna obserwacja pogody

Raport powstał 1 godzina i 8 minut temu, godzina 04:00 UTC
Wiatr 8 kt od północ
Temperatura 24°C
Wilgotność 41%
Ciśnienie 1018 hPa
Widzialność 10 km lub więcej
Brak chmur poniżej 1500 m i brak chmur cumulonimbus

METAR: VLPS 070400Z 36008KT CAVOK 24/10 Q1018 NOSIG

czas: 12:08 (05:08 UTC)

Prognoza

Raport powstał 6 godziny i 8 minut temu, godzina 23:00 UTC
Prognoza ważna od 07 godzina 00 UTC do 07 godzina 24 UTC
Wiatr 8 kt od północ
Widzialność 10 km lub więcej
Mało chmury na wysokości 2000 ft
Mało chmury na wysokości 5000 ft

TAF: VLPS 062300Z 0700/0724 36008KT 9999 FEW020 FEW050

Obserwacja i prognoza pogody dla ponad 4000 lotnisk (raport METAR i TAF).

Dostępne stacje oznaczono żółtymi i czerwonymi punktami na mapie.

Najedź kursorem aby zobaczyć nazwę stacji.

Kliknij aby zobaczyć obserwacje i prognozy pogody.

Aby zmienić mapę: kliknij na zielony przycisk z czarnym krzyżykiem, aby powiększyć; na zielony przycisk z myślnikiem, aby pomniejszyć; na zielone strzałki, aby przejść do map sąsiednich.


METAR-TAF: